Rising Sun, Ohio
Current Conditions -  °F | °C
As of 2:53 AM on Friday 28 Nov 2014 (Local Time) from KTDZ Reporting Station
Clear Clear  
Wind Chill: -14°   Ceiling: Unl
Heat Index: -7°   Visibility: 10mi
Dew Point: -13°   Wind: 13mph
Humidity: 62%   Direction: 320°NW
Pressure: 30.35"   Gusts: NA
Location:  41.2686°N, 83.4288°W
Report Text: KTDZ 280753Z AUTO 32011KT 10SM CLR M07/M13 A3035 RMK AO2 SLP286 T10671128 TSNO
Loading
Personal Weather Stations






























Interactive Weather Map New forecast layout! Learn more

10-Day Weather Forecast

Advertisements
Track Severe Weather on mobile